Terminal Aerodrome Forecast
Issued by NWS

Home | Current Version | Previous Version | Text Only | Print | Product List | Glossary On
Versions: 1 2 3 4 5 6 7 8 9 10 11 12 13 14 15 16 17 18 19 20 21 22 23
000
FTUS45 KABQ 181341 AAB
TAFFMN
TAF AMD
KFMN 181341Z 1814/1912 VRB05KT P6SM BKN050
      TEMPO 1814/1816 1/2SM FZFG OVC001
     FM182000 28009KT P6SM SCT070
     FM190200 VRB05KT P6SM SKC=

USA.gov is the U.S. government's official web portal to all federal, state and local government web resources and services.